createdAt,value
2023-03-28T00:03:36.085Z,2.84
2023-03-28T00:08:58.828Z,2.91
2023-03-28T00:14:20.951Z,2.86
2023-03-28T00:19:43.032Z,2.88
2023-03-28T00:25:07.431Z,2.92
2023-03-28T00:30:29.212Z,2.97
2023-03-28T00:35:51.518Z,2.99
2023-03-28T00:41:16.444Z,3.05
2023-03-28T00:46:42.633Z,3.16
2023-03-28T00:52:05.578Z,3.17
2023-03-28T00:57:29.653Z,3.09
2023-03-28T01:02:55.279Z,3.07
2023-03-28T01:08:26.314Z,2.99
2023-03-28T01:13:52.479Z,2.98
2023-03-28T01:20:19.036Z,2.96
2023-03-28T01:25:53.423Z,2.87
2023-03-28T01:31:38.438Z,2.81
2023-03-28T01:37:44.361Z,2.78
2023-03-28T01:43:33.669Z,2.89
2023-03-28T01:49:22.826Z,3.02
2023-03-28T01:55:05.804Z,3.11
2023-03-28T02:00:32.885Z,3.18
2023-03-28T02:06:01.801Z,3.16
2023-03-28T02:11:27.061Z,3.23
2023-03-28T02:17:09.979Z,3.19
2023-03-28T02:23:02.298Z,3.27
2023-03-28T02:28:45.895Z,3.26
2023-03-28T02:34:25.183Z,3.18
2023-03-28T02:39:50.967Z,3.23
2023-03-28T02:45:34.422Z,3.12
2023-03-28T02:51:30.719Z,3.16
2023-03-28T02:57:05.585Z,3.23
2023-03-28T03:02:42.787Z,3.18
2023-03-28T03:08:05.526Z,3.18
2023-03-28T03:13:30.267Z,3.23
2023-03-28T03:18:57.956Z,3.13
2023-03-28T03:24:20.613Z,3.12
2023-03-28T03:29:43.017Z,3.31
2023-03-28T03:35:10.456Z,3.37
2023-03-28T03:40:32.847Z,3.38
2023-03-28T03:45:55.077Z,3.45
2023-03-28T03:51:17.174Z,3.45
2023-03-28T03:56:39.314Z,3.47
2023-03-28T04:02:01.919Z,3.42
2023-03-28T04:07:42.844Z,3.46
2023-03-28T04:13:14.161Z,3.55
2023-03-28T04:18:37.977Z,3.63
2023-03-28T04:24:02.463Z,3.70
2023-03-28T04:29:33.448Z,3.77
2023-03-28T04:35:16.957Z,3.86
2023-03-28T04:40:45.196Z,3.88
2023-03-28T04:46:17.914Z,3.93
2023-03-28T04:51:40.350Z,3.99
2023-03-28T04:57:03.104Z,4.06
2023-03-28T05:02:33.652Z,4.11
2023-03-28T05:07:58.826Z,4.09
2023-03-28T05:13:21.088Z,4.05
2023-03-28T05:18:56.613Z,4.17
2023-03-28T05:24:43.421Z,4.14
2023-03-28T05:30:14.229Z,4.27
2023-03-28T05:35:37.921Z,4.33
2023-03-28T05:41:00.426Z,4.39
2023-03-28T05:46:22.862Z,4.50
2023-03-28T05:51:44.715Z,4.60
2023-03-28T05:57:06.857Z,4.74
2023-03-28T06:02:29.949Z,4.85
2023-03-28T06:07:52.188Z,4.92
2023-03-28T06:13:15.844Z,4.93
2023-03-28T06:18:41.067Z,4.98
2023-03-28T06:24:03.164Z,5.02
2023-03-28T06:29:29.783Z,5.00
2023-03-28T06:34:57.311Z,5.08
2023-03-28T06:40:19.412Z,5.03
2023-03-28T06:45:41.847Z,5.15
2023-03-28T06:51:08.428Z,5.23
2023-03-28T06:56:31.576Z,5.24
2023-03-28T07:01:54.716Z,5.36
2023-03-28T07:07:22.930Z,5.55
2023-03-28T07:12:52.202Z,5.62
2023-03-28T07:18:14.810Z,5.85
2023-03-28T07:23:39.982Z,5.96
2023-03-28T07:29:03.539Z,6.03
2023-03-28T07:34:25.738Z,6.06
2023-03-28T07:39:48.443Z,6.20
2023-03-28T07:45:15.521Z,6.12
2023-03-28T07:50:37.508Z,6.26
2023-03-28T07:56:00.430Z,6.20
2023-03-28T08:01:38.153Z,6.07
2023-03-28T08:07:01.000Z,6.00
2023-03-28T08:12:23.225Z,6.17
2023-03-28T08:17:45.972Z,6.10
2023-03-28T08:23:10.760Z,6.03
2023-03-28T08:28:34.928Z,6.03
2023-03-28T08:33:58.100Z,6.05
2023-03-28T08:39:27.116Z,6.27
2023-03-28T08:45:05.910Z,6.52
2023-03-28T08:50:42.080Z,6.47
2023-03-28T08:56:07.267Z,6.45
2023-03-28T09:01:33.314Z,6.45
2023-03-28T09:07:07.962Z,6.47
2023-03-28T09:12:53.312Z,6.72
2023-03-28T09:18:39.451Z,6.69
2023-03-28T09:24:13.566Z,6.65
2023-03-28T09:30:19.851Z,6.52
2023-03-28T09:35:43.042Z,6.59
2023-03-28T09:41:13.220Z,6.59
2023-03-28T09:46:52.022Z,6.60
2023-03-28T09:52:32.805Z,6.79
2023-03-28T09:58:08.736Z,6.95
2023-03-28T10:03:57.704Z,6.90
2023-03-28T10:09:54.682Z,7.08
2023-03-28T10:15:42.392Z,7.01
2023-03-28T10:21:26.952Z,6.78
2023-03-28T10:27:24.616Z,6.94
2023-03-28T10:33:16.769Z,6.85
2023-03-28T10:39:23.978Z,6.67
2023-03-28T10:45:40.128Z,6.67
2023-03-28T10:51:11.082Z,6.68
2023-03-28T10:56:51.189Z,6.74
2023-03-28T11:02:43.971Z,6.86
2023-03-28T11:09:02.593Z,6.81
2023-03-28T11:14:56.227Z,7.15
2023-03-28T11:20:38.276Z,7.00
2023-03-28T11:26:13.743Z,6.77
2023-03-28T11:32:27.913Z,6.72
2023-03-28T11:38:12.400Z,6.92
2023-03-28T11:44:01.540Z,7.00
2023-03-28T11:49:24.129Z,6.92
2023-03-28T11:54:57.023Z,6.73
2023-03-28T12:00:42.630Z,7.06
2023-03-28T12:06:23.225Z,7.14
2023-03-28T12:11:57.064Z,7.04
2023-03-28T12:17:26.413Z,7.18
2023-03-28T12:22:56.559Z,7.13
2023-03-28T12:28:48.942Z,7.11
2023-03-28T12:34:25.485Z,7.28
2023-03-28T12:40:14.096Z,7.37
2023-03-28T12:45:44.938Z,7.47
2023-03-28T12:51:22.696Z,7.55
2023-03-28T12:56:48.782Z,7.48
2023-03-28T13:02:19.212Z,7.82
2023-03-28T13:08:07.160Z,7.57
2023-03-28T13:14:06.385Z,7.47
2023-03-28T13:20:07.916Z,7.24
2023-03-28T13:25:34.822Z,7.02
2023-03-28T13:31:26.279Z,6.89
2023-03-28T13:36:56.295Z,6.74
2023-03-28T13:42:33.444Z,6.83
2023-03-28T13:48:10.038Z,6.71
2023-03-28T13:53:47.087Z,6.73
2023-03-28T13:59:17.177Z,6.80
2023-03-28T14:04:39.595Z,6.78
2023-03-28T14:10:24.382Z,6.88
2023-03-28T14:15:47.258Z,6.75
2023-03-28T14:21:10.601Z,6.78
2023-03-28T14:26:36.047Z,6.78
2023-03-28T14:31:58.238Z,6.70
2023-03-28T14:37:23.170Z,6.64
2023-03-28T14:42:49.739Z,6.48
2023-03-28T14:48:19.761Z,6.42
2023-03-28T14:53:45.023Z,6.42
2023-03-28T14:59:10.117Z,6.23
2023-03-28T15:04:35.565Z,6.18
2023-03-28T15:10:19.771Z,6.05
2023-03-28T15:15:47.962Z,5.61
2023-03-28T15:21:11.342Z,5.48
2023-03-28T15:26:42.543Z,5.25
2023-03-28T15:32:18.271Z,5.07
2023-03-28T15:37:45.216Z,4.87
2023-03-28T15:43:07.834Z,4.81
2023-03-28T15:48:35.161Z,4.63
2023-03-28T15:53:59.782Z,4.51
2023-03-28T15:59:31.627Z,4.57
2023-03-28T16:05:06.936Z,4.49
2023-03-28T16:10:32.455Z,4.22
2023-03-28T16:16:27.107Z,4.04
2023-03-28T16:22:14.549Z,4.21
2023-03-28T16:27:39.020Z,4.27
2023-03-28T16:33:01.925Z,4.19
2023-03-28T16:38:24.903Z,4.23
2023-03-28T16:43:47.029Z,4.16
2023-03-28T16:49:09.139Z,4.11
2023-03-28T16:54:31.187Z,4.18
2023-03-28T16:59:53.300Z,4.10
2023-03-28T17:05:18.818Z,4.21
2023-03-28T17:10:43.451Z,4.21
2023-03-28T17:16:06.674Z,4.15
2023-03-28T17:21:29.811Z,4.10
2023-03-28T17:26:51.862Z,4.09
2023-03-28T17:32:14.514Z,4.08
2023-03-28T17:37:39.139Z,4.03
2023-03-28T17:43:01.412Z,3.97
2023-03-28T17:48:27.421Z,4.17
2023-03-28T17:54:01.384Z,4.12
2023-03-28T17:59:24.038Z,4.20
2023-03-28T18:04:46.784Z,4.07
2023-03-28T18:10:16.021Z,4.07
2023-03-28T18:15:41.457Z,3.85
2023-03-28T18:21:04.832Z,3.91
2023-03-28T18:26:31.502Z,3.75
2023-03-28T18:31:54.282Z,3.83
2023-03-28T18:37:17.143Z,3.60
2023-03-28T18:42:39.508Z,3.54
2023-03-28T18:48:02.438Z,3.64
2023-03-28T18:53:26.522Z,3.66
2023-03-28T18:58:50.964Z,3.36
2023-03-28T19:04:13.356Z,3.33
2023-03-28T19:09:35.984Z,3.45
2023-03-28T19:14:57.890Z,3.41
2023-03-28T19:20:20.070Z,3.25
2023-03-28T19:25:42.682Z,3.20
2023-03-28T19:31:07.434Z,3.26
2023-03-28T19:36:29.570Z,3.23
2023-03-28T19:41:51.709Z,3.25
2023-03-28T19:52:51.744Z,3.50
2023-03-28T19:58:14.243Z,3.38
2023-03-28T20:03:36.378Z,3.57
2023-03-28T20:08:58.405Z,3.54
2023-03-28T20:14:46.794Z,3.69
2023-03-28T20:20:09.989Z,3.66
2023-03-28T20:25:33.973Z,3.56
2023-03-28T20:30:56.300Z,3.51
2023-03-28T20:36:18.145Z,3.42
2023-03-28T20:41:41.042Z,3.37
2023-03-28T20:47:08.193Z,3.35
2023-03-28T20:52:30.987Z,3.27
2023-03-28T20:57:52.931Z,3.26
2023-03-28T21:03:16.394Z,3.21
2023-03-28T21:08:38.109Z,3.19
2023-03-28T21:14:01.496Z,3.19
2023-03-28T21:19:26.709Z,3.00
2023-03-28T21:24:49.219Z,3.01
2023-03-28T21:30:12.283Z,2.99
2023-03-28T21:35:36.016Z,2.92
2023-03-28T21:40:57.949Z,2.90
2023-03-28T21:46:21.400Z,3.02
2023-03-28T21:51:43.540Z,3.01
2023-03-28T21:57:05.819Z,2.93
2023-03-28T22:02:27.696Z,2.92
2023-03-28T22:07:57.487Z,2.93
2023-03-28T22:13:28.305Z,2.91
2023-03-28T22:18:51.479Z,2.90
2023-03-28T22:24:13.593Z,2.98
2023-03-28T22:29:36.110Z,2.91
2023-03-28T22:35:55.830Z,2.96
2023-03-28T22:41:17.975Z,2.92
2023-03-28T22:46:41.538Z,2.89
2023-03-28T22:52:03.758Z,2.77
2023-03-28T22:57:25.482Z,2.88
2023-03-28T23:02:47.896Z,2.86
2023-03-28T23:08:12.680Z,2.89
2023-03-28T23:13:34.864Z,2.79
2023-03-28T23:18:57.949Z,2.64
2023-03-28T23:24:24.197Z,2.64
2023-03-28T23:29:53.342Z,2.64
2023-03-28T23:35:16.740Z,2.55
2023-03-28T23:40:41.413Z,2.50
2023-03-28T23:46:06.083Z,2.59
2023-03-28T23:51:29.816Z,2.64
2023-03-28T23:56:52.234Z,2.57
